Terminal Aerodrome Forecast
Issued by NWS

Current Version | Previous Version | Graphics & Text | Print | Product List | Glossary On
Versions: 1 2 3 4 5 6 7 8 9 10 11 12 13 14 15 16 17 18 19 20 21 22 23 24 25 26
000
FTPQ31 PGUM 142335
TAFTRO
TAF
PTRO 142335Z 1500/1524 VRB06KT P6SM VCSH SCT016 SCT040
      TEMPO 1502/1506 5SM SHRA BKN016 OVC030=

USA.gov is the U.S. government's official web portal to all federal, state and local government web resources and services.